sensor_id;sensor_type;location;lat;lon;timestamp;P1;durP1;ratioP1;P2;durP2;ratioP2
60502;SDS011;51448;51.660;5.824;2022-08-01T00:00:53;23.63;;;15.70;;
60502;SDS011;51448;51.660;5.824;2022-08-01T00:03:20;23.20;;;15.35;;
60502;SDS011;51448;51.660;5.824;2022-08-01T00:05:48;18.42;;;14.18;;
60502;SDS011;51448;51.660;5.824;2022-08-01T00:08:15;21.38;;;14.77;;
60502;SDS011;51448;51.660;5.824;2022-08-01T00:10:43;19.70;;;13.88;;
60502;SDS011;51448;51.660;5.824;2022-08-01T00:13:10;19.52;;;15.05;;
60502;SDS011;51448;51.660;5.824;2022-08-01T00:15:38;21.80;;;14.38;;
60502;SDS011;51448;51.660;5.824;2022-08-01T00:18:05;17.80;;;13.15;;
60502;SDS011;51448;51.660;5.824;2022-08-01T00:20:33;17.95;;;13.70;;
60502;SDS011;51448;51.660;5.824;2022-08-01T00:23:02;18.33;;;13.80;;
60502;SDS011;51448;51.660;5.824;2022-08-01T00:25:30;17.63;;;12.82;;
60502;SDS011;51448;51.660;5.824;2022-08-01T00:28:01;19.08;;;14.13;;
60502;SDS011;51448;51.660;5.824;2022-08-01T00:30:30;19.67;;;13.65;;
60502;SDS011;51448;51.660;5.824;2022-08-01T00:32:58;16.50;;;13.77;;
60502;SDS011;51448;51.660;5.824;2022-08-01T00:35:26;20.05;;;14.02;;
60502;SDS011;51448;51.660;5.824;2022-08-01T00:37:53;20.75;;;14.60;;
60502;SDS011;51448;51.660;5.824;2022-08-01T00:40:21;19.98;;;15.50;;
60502;SDS011;51448;51.660;5.824;2022-08-01T00:42:49;18.88;;;14.30;;
60502;SDS011;51448;51.660;5.824;2022-08-01T00:45:16;25.05;;;14.95;;
60502;SDS011;51448;51.660;5.824;2022-08-01T00:47:44;20.48;;;15.35;;
60502;SDS011;51448;51.660;5.824;2022-08-01T00:50:12;20.88;;;15.77;;
60502;SDS011;51448;51.660;5.824;2022-08-01T00:52:40;22.50;;;16.33;;
60502;SDS011;51448;51.660;5.824;2022-08-01T00:55:17;23.10;;;17.13;;
60502;SDS011;51448;51.660;5.824;2022-08-01T00:57:46;24.27;;;18.73;;
60502;SDS011;51448;51.660;5.824;2022-08-01T01:00:33;18.77;;;15.98;;
60502;SDS011;51448;51.660;5.824;2022-08-01T01:03:20;20.52;;;15.30;;
60502;SDS011;51448;51.660;5.824;2022-08-01T01:06:23;18.33;;;13.73;;
60502;SDS011;51448;51.660;5.824;2022-08-01T01:12:30;17.23;;;12.45;;
60502;SDS011;51448;51.660;5.824;2022-08-01T01:18:05;16.42;;;12.93;;
60502;SDS011;51448;51.660;5.824;2022-08-01T01:20:41;15.35;;;11.60;;
60502;SDS011;51448;51.660;5.824;2022-08-01T01:29:30;14.27;;;11.23;;
60502;SDS011;51448;51.660;5.824;2022-08-01T01:35:06;15.15;;;11.18;;
60502;SDS011;51448;51.660;5.824;2022-08-01T01:37:42;17.65;;;12.07;;
60502;SDS011;51448;51.660;5.824;2022-08-01T01:40:15;15.02;;;12.00;;
60502;SDS011;51448;51.660;5.824;2022-08-01T01:42:46;17.77;;;12.25;;
60502;SDS011;51448;51.660;5.824;2022-08-01T01:45:16;17.98;;;12.48;;
60502;SDS011;51448;51.660;5.824;2022-08-01T01:47:46;18.92;;;12.52;;
60502;SDS011;51448;51.660;5.824;2022-08-01T01:50:15;15.02;;;12.05;;
60502;SDS011;51448;51.660;5.824;2022-08-01T01:52:50;16.05;;;11.35;;
60502;SDS011;51448;51.660;5.824;2022-08-01T01:55:21;18.40;;;12.25;;
60502;SDS011;51448;51.660;5.824;2022-08-01T02:00:22;13.95;;;9.38;;
60502;SDS011;51448;51.660;5.824;2022-08-01T02:02:52;15.48;;;11.68;;
60502;SDS011;51448;51.660;5.824;2022-08-01T02:05:23;15.52;;;11.88;;
60502;SDS011;51448;51.660;5.824;2022-08-01T02:07:53;15.43;;;11.15;;
60502;SDS011;51448;51.660;5.824;2022-08-01T02:10:25;14.25;;;10.88;;
60502;SDS011;51448;51.660;5.824;2022-08-01T02:12:55;15.70;;;11.65;;
60502;SDS011;51448;51.660;5.824;2022-08-01T02:15:27;17.38;;;11.95;;
60502;SDS011;51448;51.660;5.824;2022-08-01T02:17:58;15.95;;;11.88;;
60502;SDS011;51448;51.660;5.824;2022-08-01T02:20:29;14.63;;;11.18;;
60502;SDS011;51448;51.660;5.824;2022-08-01T02:22:59;15.27;;;11.20;;
60502;SDS011;51448;51.660;5.824;2022-08-01T02:25:56;14.68;;;11.13;;
60502;SDS011;51448;51.660;5.824;2022-08-01T02:29:12;15.60;;;11.77;;
60502;SDS011;51448;51.660;5.824;2022-08-01T02:31:38;17.10;;;11.15;;
60502;SDS011;51448;51.660;5.824;2022-08-01T02:34:13;16.80;;;12.13;;
60502;SDS011;51448;51.660;5.824;2022-08-01T02:36:46;16.00;;;11.10;;
60502;SDS011;51448;51.660;5.824;2022-08-01T02:39:17;14.05;;;10.43;;
60502;SDS011;51448;51.660;5.824;2022-08-01T02:41:49;18.23;;;10.93;;
60502;SDS011;51448;51.660;5.824;2022-08-01T02:44:32;15.55;;;11.50;;
60502;SDS011;51448;51.660;5.824;2022-08-01T02:47:07;16.73;;;10.95;;
60502;SDS011;51448;51.660;5.824;2022-08-01T02:49:39;15.32;;;11.00;;
60502;SDS011;51448;51.660;5.824;2022-08-01T02:52:20;14.35;;;10.15;;
60502;SDS011;51448;51.660;5.824;2022-08-01T02:54:51;16.67;;;12.03;;
60502;SDS011;51448;51.660;5.824;2022-08-01T02:57:23;15.07;;;10.57;;
60502;SDS011;51448;51.660;5.824;2022-08-01T03:00:12;15.00;;;10.77;;
60502;SDS011;51448;51.660;5.824;2022-08-01T03:02:43;15.48;;;10.98;;
60502;SDS011;51448;51.660;5.824;2022-08-01T03:05:15;16.10;;;11.73;;
60502;SDS011;51448;51.660;5.824;2022-08-01T03:07:45;14.60;;;10.45;;
60502;SDS011;51448;51.660;5.824;2022-08-01T03:10:15;15.70;;;11.18;;
60502;SDS011;51448;51.660;5.824;2022-08-01T03:12:44;15.50;;;11.50;;
60502;SDS011;51448;51.660;5.824;2022-08-01T03:15:15;16.48;;;11.45;;
60502;SDS011;51448;51.660;5.824;2022-08-01T03:17:45;19.85;;;12.63;;
60502;SDS011;51448;51.660;5.824;2022-08-01T03:20:18;17.52;;;11.93;;
60502;SDS011;51448;51.660;5.824;2022-08-01T03:22:49;16.17;;;11.32;;
60502;SDS011;51448;51.660;5.824;2022-08-01T03:25:19;16.90;;;12.97;;
60502;SDS011;51448;51.660;5.824;2022-08-01T03:27:55;15.05;;;12.00;;
60502;SDS011;51448;51.660;5.824;2022-08-01T03:30:26;19.02;;;13.25;;
60502;SDS011;51448;51.660;5.824;2022-08-01T03:35:26;16.75;;;11.93;;
60502;SDS011;51448;51.660;5.824;2022-08-01T03:38:04;15.65;;;12.02;;
60502;SDS011;51448;51.660;5.824;2022-08-01T03:40:53;16.55;;;11.90;;
60502;SDS011;51448;51.660;5.824;2022-08-01T03:46:00;19.20;;;13.90;;
60502;SDS011;51448;51.660;5.824;2022-08-01T03:48:39;18.70;;;13.27;;
60502;SDS011;51448;51.660;5.824;2022-08-01T03:51:12;18.83;;;13.18;;
60502;SDS011;51448;51.660;5.824;2022-08-01T03:53:42;19.88;;;14.57;;
60502;SDS011;51448;51.660;5.824;2022-08-01T03:56:13;19.50;;;14.75;;
60502;SDS011;51448;51.660;5.824;2022-08-01T03:58:49;20.52;;;14.23;;
60502;SDS011;51448;51.660;5.824;2022-08-01T04:01:17;20.45;;;14.20;;
60502;SDS011;51448;51.660;5.824;2022-08-01T04:03:46;23.35;;;16.20;;
60502;SDS011;51448;51.660;5.824;2022-08-01T04:06:14;21.42;;;15.90;;
60502;SDS011;51448;51.660;5.824;2022-08-01T04:08:42;20.65;;;14.90;;
60502;SDS011;51448;51.660;5.824;2022-08-01T04:11:23;20.95;;;14.25;;
60502;SDS011;51448;51.660;5.824;2022-08-01T04:13:53;18.58;;;13.70;;
60502;SDS011;51448;51.660;5.824;2022-08-01T04:16:23;21.13;;;14.50;;
60502;SDS011;51448;51.660;5.824;2022-08-01T04:18:51;22.13;;;15.25;;
60502;SDS011;51448;51.660;5.824;2022-08-01T04:21:20;21.73;;;15.07;;
60502;SDS011;51448;51.660;5.824;2022-08-01T04:24:05;22.60;;;16.45;;
60502;SDS011;51448;51.660;5.824;2022-08-01T04:26:41;20.75;;;14.30;;
60502;SDS011;51448;51.660;5.824;2022-08-01T04:29:13;21.55;;;14.40;;
60502;SDS011;51448;51.660;5.824;2022-08-01T04:31:46;20.70;;;14.50;;
60502;SDS011;51448;51.660;5.824;2022-08-01T04:34:17;22.30;;;14.45;;
60502;SDS011;51448;51.660;5.824;2022-08-01T04:36:50;22.75;;;15.38;;
60502;SDS011;51448;51.660;5.824;2022-08-01T04:39:23;21.08;;;14.50;;
60502;SDS011;51448;51.660;5.824;2022-08-01T04:42:00;19.83;;;13.80;;
60502;SDS011;51448;51.660;5.824;2022-08-01T04:44:31;21.85;;;15.23;;
60502;SDS011;51448;51.660;5.824;2022-08-01T04:47:00;20.08;;;15.07;;
60502;SDS011;51448;51.660;5.824;2022-08-01T04:49:31;21.07;;;15.13;;
60502;SDS011;51448;51.660;5.824;2022-08-01T04:52:15;20.73;;;14.80;;
60502;SDS011;51448;51.660;5.824;2022-08-01T04:54:50;19.45;;;14.07;;
60502;SDS011;51448;51.660;5.824;2022-08-01T04:57:18;21.35;;;15.35;;
60502;SDS011;51448;51.660;5.824;2022-08-01T04:59:46;20.17;;;14.93;;
60502;SDS011;51448;51.660;5.824;2022-08-01T05:02:15;19.15;;;13.75;;
60502;SDS011;51448;51.660;5.824;2022-08-01T05:04:45;20.55;;;13.15;;
60502;SDS011;51448;51.660;5.824;2022-08-01T05:07:13;22.60;;;14.55;;
60502;SDS011;51448;51.660;5.824;2022-08-01T05:09:42;20.75;;;14.35;;
60502;SDS011;51448;51.660;5.824;2022-08-01T05:12:13;20.20;;;14.00;;
60502;SDS011;51448;51.660;5.824;2022-08-01T05:14:41;21.38;;;14.30;;
60502;SDS011;51448;51.660;5.824;2022-08-01T05:17:08;21.05;;;14.57;;
60502;SDS011;51448;51.660;5.824;2022-08-01T05:19:37;20.95;;;15.02;;
60502;SDS011;51448;51.660;5.824;2022-08-01T05:22:07;22.45;;;15.48;;
60502;SDS011;51448;51.660;5.824;2022-08-01T05:24:37;19.88;;;14.05;;
60502;SDS011;51448;51.660;5.824;2022-08-01T05:27:07;21.92;;;15.07;;
60502;SDS011;51448;51.660;5.824;2022-08-01T05:29:37;21.23;;;14.45;;
60502;SDS011;51448;51.660;5.824;2022-08-01T05:32:11;19.95;;;14.18;;
60502;SDS011;51448;51.660;5.824;2022-08-01T05:34:38;20.50;;;14.48;;
60502;SDS011;51448;51.660;5.824;2022-08-01T05:37:06;20.58;;;14.55;;
60502;SDS011;51448;51.660;5.824;2022-08-01T05:39:34;23.27;;;15.48;;
60502;SDS011;51448;51.660;5.824;2022-08-01T05:42:02;21.67;;;15.27;;
60502;SDS011;51448;51.660;5.824;2022-08-01T05:44:30;21.55;;;15.18;;
60502;SDS011;51448;51.660;5.824;2022-08-01T05:46:58;17.60;;;13.00;;
60502;SDS011;51448;51.660;5.824;2022-08-01T05:49:25;17.90;;;13.65;;
60502;SDS011;51448;51.660;5.824;2022-08-01T05:51:53;19.10;;;14.50;;
60502;SDS011;51448;51.660;5.824;2022-08-01T05:54:21;20.17;;;13.85;;
60502;SDS011;51448;51.660;5.824;2022-08-01T05:56:48;17.10;;;14.10;;
60502;SDS011;51448;51.660;5.824;2022-08-01T05:59:17;17.88;;;14.43;;
60502;SDS011;51448;51.660;5.824;2022-08-01T06:01:45;18.13;;;13.95;;
60502;SDS011;51448;51.660;5.824;2022-08-01T06:04:12;18.65;;;14.50;;
60502;SDS011;51448;51.660;5.824;2022-08-01T06:06:40;17.35;;;14.60;;
60502;SDS011;51448;51.660;5.824;2022-08-01T06:09:08;17.83;;;14.95;;
60502;SDS011;51448;51.660;5.824;2022-08-01T06:11:36;18.42;;;15.07;;
60502;SDS011;51448;51.660;5.824;2022-08-01T06:14:04;21.80;;;16.60;;
60502;SDS011;51448;51.660;5.824;2022-08-01T06:16:35;20.60;;;16.40;;
60502;SDS011;51448;51.660;5.824;2022-08-01T06:19:03;19.52;;;16.60;;
60502;SDS011;51448;51.660;5.824;2022-08-01T06:21:30;20.52;;;16.17;;
60502;SDS011;51448;51.660;5.824;2022-08-01T06:23:58;20.02;;;16.48;;
60502;SDS011;51448;51.660;5.824;2022-08-01T06:26:25;19.23;;;15.68;;
60502;SDS011;51448;51.660;5.824;2022-08-01T06:28:53;18.27;;;15.50;;
60502;SDS011;51448;51.660;5.824;2022-08-01T06:31:20;22.45;;;16.45;;
60502;SDS011;51448;51.660;5.824;2022-08-01T06:33:48;21.77;;;17.45;;
60502;SDS011;51448;51.660;5.824;2022-08-01T06:36:15;18.73;;;16.70;;
60502;SDS011;51448;51.660;5.824;2022-08-01T06:38:44;18.08;;;15.98;;
60502;SDS011;51448;51.660;5.824;2022-08-01T06:41:11;17.95;;;15.68;;
60502;SDS011;51448;51.660;5.824;2022-08-01T06:43:39;18.17;;;15.88;;
60502;SDS011;51448;51.660;5.824;2022-08-01T06:46:07;18.40;;;15.23;;
60502;SDS011;51448;51.660;5.824;2022-08-01T06:48:34;18.40;;;15.70;;
60502;SDS011;51448;51.660;5.824;2022-08-01T06:51:06;17.02;;;14.73;;
60502;SDS011;51448;51.660;5.824;2022-08-01T06:53:36;15.52;;;12.30;;
60502;SDS011;51448;51.660;5.824;2022-08-01T06:56:05;16.35;;;14.07;;
60502;SDS011;51448;51.660;5.824;2022-08-01T06:58:34;15.48;;;13.18;;
60502;SDS011;51448;51.660;5.824;2022-08-01T07:01:05;13.65;;;12.18;;
60502;SDS011;51448;51.660;5.824;2022-08-01T07:03:34;14.57;;;12.10;;
60502;SDS011;51448;51.660;5.824;2022-08-01T07:06:23;13.75;;;12.27;;
60502;SDS011;51448;51.660;5.824;2022-08-01T07:08:52;15.35;;;12.15;;
60502;SDS011;51448;51.660;5.824;2022-08-01T07:11:21;14.15;;;11.57;;
60502;SDS011;51448;51.660;5.824;2022-08-01T07:13:50;13.20;;;11.50;;
60502;SDS011;51448;51.660;5.824;2022-08-01T07:16:18;12.63;;;10.88;;
60502;SDS011;51448;51.660;5.824;2022-08-01T07:18:46;13.40;;;11.45;;
60502;SDS011;51448;51.660;5.824;2022-08-01T07:21:13;12.52;;;10.60;;
60502;SDS011;51448;51.660;5.824;2022-08-01T07:24:01;12.73;;;9.30;;
60502;SDS011;51448;51.660;5.824;2022-08-01T07:26:39;10.27;;;8.18;;
60502;SDS011;51448;51.660;5.824;2022-08-01T07:29:21;10.15;;;7.72;;
60502;SDS011;51448;51.660;5.824;2022-08-01T07:31:53;10.27;;;7.00;;
60502;SDS011;51448;51.660;5.824;2022-08-01T07:34:23;8.63;;;6.28;;
60502;SDS011;51448;51.660;5.824;2022-08-01T07:36:52;6.95;;;4.85;;
60502;SDS011;51448;51.660;5.824;2022-08-01T07:39:20;6.28;;;4.20;;
60502;SDS011;51448;51.660;5.824;2022-08-01T07:41:48;9.05;;;4.00;;
60502;SDS011;51448;51.660;5.824;2022-08-01T07:44:34;5.60;;;3.97;;
60502;SDS011;51448;51.660;5.824;2022-08-01T07:47:03;6.80;;;4.15;;
60502;SDS011;51448;51.660;5.824;2022-08-01T07:49:31;6.32;;;3.80;;
60502;SDS011;51448;51.660;5.824;2022-08-01T07:52:05;6.68;;;4.05;;
60502;SDS011;51448;51.660;5.824;2022-08-01T07:54:34;6.80;;;4.85;;
60502;SDS011;51448;51.660;5.824;2022-08-01T07:57:02;7.80;;;5.65;;
60502;SDS011;51448;51.660;5.824;2022-08-01T07:59:30;8.90;;;5.05;;
60502;SDS011;51448;51.660;5.824;2022-08-01T08:01:58;6.95;;;5.43;;
60502;SDS011;51448;51.660;5.824;2022-08-01T08:04:27;6.70;;;5.63;;
60502;SDS011;51448;51.660;5.824;2022-08-01T08:06:54;11.73;;;6.72;;
60502;SDS011;51448;51.660;5.824;2022-08-01T08:09:23;11.98;;;6.68;;
60502;SDS011;51448;51.660;5.824;2022-08-01T08:11:51;9.27;;;6.32;;
60502;SDS011;51448;51.660;5.824;2022-08-01T08:14:19;7.30;;;6.18;;
60502;SDS011;51448;51.660;5.824;2022-08-01T08:16:58;6.93;;;5.03;;
60502;SDS011;51448;51.660;5.824;2022-08-01T08:19:28;7.65;;;5.45;;
60502;SDS011;51448;51.660;5.824;2022-08-01T08:22:05;8.40;;;5.20;;
60502;SDS011;51448;51.660;5.824;2022-08-01T08:24:37;8.05;;;4.47;;
60502;SDS011;51448;51.660;5.824;2022-08-01T08:27:13;5.45;;;3.40;;
60502;SDS011;51448;51.660;5.824;2022-08-01T08:29:42;7.25;;;3.97;;
60502;SDS011;51448;51.660;5.824;2022-08-01T08:32:11;7.32;;;3.97;;
60502;SDS011;51448;51.660;5.824;2022-08-01T08:34:39;9.15;;;4.25;;
60502;SDS011;51448;51.660;5.824;2022-08-01T08:37:07;7.03;;;4.18;;
60502;SDS011;51448;51.660;5.824;2022-08-01T08:39:35;6.18;;;4.00;;
60502;SDS011;51448;51.660;5.824;2022-08-01T08:42:09;6.00;;;3.38;;
60502;SDS011;51448;51.660;5.824;2022-08-01T08:44:41;5.43;;;2.60;;
60502;SDS011;51448;51.660;5.824;2022-08-01T08:47:11;3.95;;;2.20;;
60502;SDS011;51448;51.660;5.824;2022-08-01T08:49:47;3.90;;;1.92;;
60502;SDS011;51448;51.660;5.824;2022-08-01T08:52:21;3.88;;;1.85;;
60502;SDS011;51448;51.660;5.824;2022-08-01T08:54:50;4.20;;;1.55;;
60502;SDS011;51448;51.660;5.824;2022-08-01T08:57:19;2.95;;;1.50;;
60502;SDS011;51448;51.660;5.824;2022-08-01T08:59:47;4.05;;;1.55;;
60502;SDS011;51448;51.660;5.824;2022-08-01T09:02:18;3.22;;;1.70;;
60502;SDS011;51448;51.660;5.824;2022-08-01T09:04:48;3.38;;;1.92;;
60502;SDS011;51448;51.660;5.824;2022-08-01T09:07:17;3.40;;;1.60;;
60502;SDS011;51448;51.660;5.824;2022-08-01T09:09:44;3.35;;;1.80;;
60502;SDS011;51448;51.660;5.824;2022-08-01T09:14:45;2.88;;;1.13;;
60502;SDS011;51448;51.660;5.824;2022-08-01T09:17:17;3.22;;;1.10;;
60502;SDS011;51448;51.660;5.824;2022-08-01T09:19:45;2.08;;;1.00;;
60502;SDS011;51448;51.660;5.824;2022-08-01T09:22:21;2.47;;;1.08;;
60502;SDS011;51448;51.660;5.824;2022-08-01T09:24:58;3.38;;;0.90;;
60502;SDS011;51448;51.660;5.824;2022-08-01T09:27:29;4.20;;;1.10;;
60502;SDS011;51448;51.660;5.824;2022-08-01T09:30:11;2.47;;;0.90;;
60502;SDS011;51448;51.660;5.824;2022-08-01T09:32:59;3.35;;;1.27;;
60502;SDS011;51448;51.660;5.824;2022-08-01T09:35:33;2.47;;;1.00;;
60502;SDS011;51448;51.660;5.824;2022-08-01T09:38:13;2.63;;;1.02;;
60502;SDS011;51448;51.660;5.824;2022-08-01T09:43:20;2.22;;;1.08;;
60502;SDS011;51448;51.660;5.824;2022-08-01T09:45:50;3.65;;;0.90;;
60502;SDS011;51448;51.660;5.824;2022-08-01T09:48:21;2.90;;;1.10;;
60502;SDS011;51448;51.660;5.824;2022-08-01T09:50:56;2.95;;;0.80;;
60502;SDS011;51448;51.660;5.824;2022-08-01T09:53:40;3.50;;;0.93;;
60502;SDS011;51448;51.660;5.824;2022-08-01T09:56:18;1.35;;;0.63;;
60502;SDS011;51448;51.660;5.824;2022-08-01T10:01:28;5.05;;;0.75;;
60502;SDS011;51448;51.660;5.824;2022-08-01T10:04:11;1.48;;;0.60;;
60502;SDS011;51448;51.660;5.824;2022-08-01T10:06:44;3.30;;;0.63;;
60502;SDS011;51448;51.660;5.824;2022-08-01T10:09:31;2.42;;;0.70;;
60502;SDS011;51448;51.660;5.824;2022-08-01T10:12:07;2.22;;;0.85;;
60502;SDS011;51448;51.660;5.824;2022-08-01T10:14:43;2.08;;;0.90;;
60502;SDS011;51448;51.660;5.824;2022-08-01T10:17:17;2.85;;;0.80;;
60502;SDS011;51448;51.660;5.824;2022-08-01T10:19:48;3.97;;;0.68;;
60502;SDS011;51448;51.660;5.824;2022-08-01T10:22:24;2.55;;;0.68;;
60502;SDS011;51448;51.660;5.824;2022-08-01T10:27:24;2.72;;;0.90;;
60502;SDS011;51448;51.660;5.824;2022-08-01T10:30:06;1.80;;;0.68;;
60502;SDS011;51448;51.660;5.824;2022-08-01T10:32:49;2.83;;;1.02;;
60502;SDS011;51448;51.660;5.824;2022-08-01T10:35:21;3.05;;;1.10;;
60502;SDS011;51448;51.660;5.824;2022-08-01T10:38:10;2.00;;;0.90;;
60502;SDS011;51448;51.660;5.824;2022-08-01T10:40:41;2.97;;;0.82;;
60502;SDS011;51448;51.660;5.824;2022-08-01T10:43:10;5.88;;;1.20;;
60502;SDS011;51448;51.660;5.824;2022-08-01T10:45:48;3.10;;;0.95;;
60502;SDS011;51448;51.660;5.824;2022-08-01T10:51:03;3.55;;;1.17;;
60502;SDS011;51448;51.660;5.824;2022-08-01T10:53:50;5.10;;;1.60;;
60502;SDS011;51448;51.660;5.824;2022-08-01T10:56:21;4.65;;;1.85;;
60502;SDS011;51448;51.660;5.824;2022-08-01T10:59:03;2.85;;;1.10;;
60502;SDS011;51448;51.660;5.824;2022-08-01T11:01:34;3.05;;;0.80;;
60502;SDS011;51448;51.660;5.824;2022-08-01T11:04:08;2.85;;;0.60;;
60502;SDS011;51448;51.660;5.824;2022-08-01T11:09:42;2.58;;;0.70;;
60502;SDS011;51448;51.660;5.824;2022-08-01T11:12:18;1.70;;;0.60;;
60502;SDS011;51448;51.660;5.824;2022-08-01T11:17:42;3.58;;;0.80;;
60502;SDS011;51448;51.660;5.824;2022-08-01T11:28:24;2.93;;;0.90;;
60502;SDS011;51448;51.660;5.824;2022-08-01T11:38:42;4.65;;;1.15;;
60502;SDS011;51448;51.660;5.824;2022-08-01T11:41:51;4.43;;;1.30;;
60502;SDS011;51448;51.660;5.824;2022-08-01T11:47:00;4.10;;;0.85;;
60502;SDS011;51448;51.660;5.824;2022-08-01T11:52:11;3.53;;;0.98;;
60502;SDS011;51448;51.660;5.824;2022-08-01T11:57:44;3.97;;;1.15;;
60502;SDS011;51448;51.660;5.824;2022-08-01T12:00:15;3.53;;;0.90;;
60502;SDS011;51448;51.660;5.824;2022-08-01T12:02:45;2.70;;;0.93;;
60502;SDS011;51448;51.660;5.824;2022-08-01T12:05:25;2.60;;;0.77;;
60502;SDS011;51448;51.660;5.824;2022-08-01T12:07:57;2.78;;;0.98;;
60502;SDS011;51448;51.660;5.824;2022-08-01T12:10:28;3.20;;;0.98;;
60502;SDS011;51448;51.660;5.824;2022-08-01T12:13:15;2.95;;;1.05;;
60502;SDS011;51448;51.660;5.824;2022-08-01T12:15:46;5.20;;;1.13;;
60502;SDS011;51448;51.660;5.824;2022-08-01T12:18:18;2.97;;;0.85;;
60502;SDS011;51448;51.660;5.824;2022-08-01T12:20:46;3.00;;;0.82;;
60502;SDS011;51448;51.660;5.824;2022-08-01T12:23:23;3.50;;;1.13;;
60502;SDS011;51448;51.660;5.824;2022-08-01T12:25:51;3.72;;;0.82;;
60502;SDS011;51448;51.660;5.824;2022-08-01T12:28:20;2.25;;;0.80;;
60502;SDS011;51448;51.660;5.824;2022-08-01T12:30:48;3.63;;;0.98;;
60502;SDS011;51448;51.660;5.824;2022-08-01T12:33:17;6.72;;;1.25;;
60502;SDS011;51448;51.660;5.824;2022-08-01T12:35:46;5.13;;;1.10;;
60502;SDS011;51448;51.660;5.824;2022-08-01T12:38:16;5.35;;;1.23;;
60502;SDS011;51448;51.660;5.824;2022-08-01T12:40:49;4.47;;;1.40;;
60502;SDS011;51448;51.660;5.824;2022-08-01T12:43:21;3.88;;;1.42;;
60502;SDS011;51448;51.660;5.824;2022-08-01T12:45:56;4.70;;;1.58;;
60502;SDS011;51448;51.660;5.824;2022-08-01T12:48:27;4.85;;;1.70;;
60502;SDS011;51448;51.660;5.824;2022-08-01T12:50:58;3.57;;;1.53;;
60502;SDS011;51448;51.660;5.824;2022-08-01T12:53:33;5.18;;;1.60;;
60502;SDS011;51448;51.660;5.824;2022-08-01T12:56:08;6.03;;;1.23;;
60502;SDS011;51448;51.660;5.824;2022-08-01T12:58:39;3.35;;;1.30;;
60502;SDS011;51448;51.660;5.824;2022-08-01T13:01:08;3.60;;;1.60;;
60502;SDS011;51448;51.660;5.824;2022-08-01T13:03:38;4.72;;;1.40;;
60502;SDS011;51448;51.660;5.824;2022-08-01T13:06:11;4.10;;;1.63;;
60502;SDS011;51448;51.660;5.824;2022-08-01T13:08:42;5.55;;;1.70;;
60502;SDS011;51448;51.660;5.824;2022-08-01T13:11:13;4.35;;;1.52;;
60502;SDS011;51448;51.660;5.824;2022-08-01T13:13:45;4.82;;;1.40;;
60502;SDS011;51448;51.660;5.824;2022-08-01T13:16:17;3.63;;;1.40;;
60502;SDS011;51448;51.660;5.824;2022-08-01T13:19:04;4.22;;;1.60;;
60502;SDS011;51448;51.660;5.824;2022-08-01T13:21:33;3.92;;;1.35;;
60502;SDS011;51448;51.660;5.824;2022-08-01T13:24:27;5.95;;;1.80;;
60502;SDS011;51448;51.660;5.824;2022-08-01T13:26:57;4.38;;;1.60;;
60502;SDS011;51448;51.660;5.824;2022-08-01T13:29:30;5.38;;;1.60;;
60502;SDS011;51448;51.660;5.824;2022-08-01T13:35:03;6.50;;;1.60;;
60502;SDS011;51448;51.660;5.824;2022-08-01T13:37:36;5.28;;;1.95;;
60502;SDS011;51448;51.660;5.824;2022-08-01T13:40:05;6.30;;;1.85;;
60502;SDS011;51448;51.660;5.824;2022-08-01T13:42:35;5.90;;;2.03;;
60502;SDS011;51448;51.660;5.824;2022-08-01T13:45:04;5.55;;;2.10;;
60502;SDS011;51448;51.660;5.824;2022-08-01T13:47:41;6.97;;;2.30;;
60502;SDS011;51448;51.660;5.824;2022-08-01T13:50:31;4.68;;;1.70;;
60502;SDS011;51448;51.660;5.824;2022-08-01T13:52:59;6.00;;;1.88;;
60502;SDS011;51448;51.660;5.824;2022-08-01T13:55:27;5.32;;;1.70;;
60502;SDS011;51448;51.660;5.824;2022-08-01T13:58:01;5.18;;;1.75;;
60502;SDS011;51448;51.660;5.824;2022-08-01T14:00:30;5.85;;;2.03;;
60502;SDS011;51448;51.660;5.824;2022-08-01T14:02:57;4.80;;;1.77;;
60502;SDS011;51448;51.660;5.824;2022-08-01T14:05:25;5.15;;;1.80;;
60502;SDS011;51448;51.660;5.824;2022-08-01T14:07:53;4.80;;;1.92;;
60502;SDS011;51448;51.660;5.824;2022-08-01T14:10:23;6.93;;;1.85;;
60502;SDS011;51448;51.660;5.824;2022-08-01T14:12:51;6.97;;;2.05;;
60502;SDS011;51448;51.660;5.824;2022-08-01T14:18:06;6.85;;;2.03;;
60502;SDS011;51448;51.660;5.824;2022-08-01T14:20:36;7.15;;;1.70;;
60502;SDS011;51448;51.660;5.824;2022-08-01T14:23:05;6.43;;;1.80;;
60502;SDS011;51448;51.660;5.824;2022-08-01T14:25:38;5.32;;;1.92;;
60502;SDS011;51448;51.660;5.824;2022-08-01T14:28:30;7.35;;;2.30;;
60502;SDS011;51448;51.660;5.824;2022-08-01T14:30:58;7.97;;;2.20;;
60502;SDS011;51448;51.660;5.824;2022-08-01T14:33:26;6.50;;;2.00;;
60502;SDS011;51448;51.660;5.824;2022-08-01T14:35:54;8.48;;;2.50;;
60502;SDS011;51448;51.660;5.824;2022-08-01T14:38:42;7.07;;;2.63;;
60502;SDS011;51448;51.660;5.824;2022-08-01T14:41:15;6.05;;;2.00;;
60502;SDS011;51448;51.660;5.824;2022-08-01T14:43:43;8.80;;;2.40;;
60502;SDS011;51448;51.660;5.824;2022-08-01T14:46:11;7.88;;;4.93;;
60502;SDS011;51448;51.660;5.824;2022-08-01T14:48:39;7.72;;;3.20;;
60502;SDS011;51448;51.660;5.824;2022-08-01T14:51:09;7.25;;;2.30;;
60502;SDS011;51448;51.660;5.824;2022-08-01T14:53:39;6.50;;;2.00;;
60502;SDS011;51448;51.660;5.824;2022-08-01T14:56:13;5.63;;;1.77;;
60502;SDS011;51448;51.660;5.824;2022-08-01T14:58:40;7.32;;;1.95;;
60502;SDS011;51448;51.660;5.824;2022-08-01T15:01:08;7.07;;;2.10;;
60502;SDS011;51448;51.660;5.824;2022-08-01T15:03:35;12.45;;;7.10;;
60502;SDS011;51448;51.660;5.824;2022-08-01T15:06:04;9.02;;;4.53;;
60502;SDS011;51448;51.660;5.824;2022-08-01T15:08:33;14.13;;;8.77;;
60502;SDS011;51448;51.660;5.824;2022-08-01T15:11:00;10.55;;;3.53;;
60502;SDS011;51448;51.660;5.824;2022-08-01T15:13:28;8.48;;;2.40;;
60502;SDS011;51448;51.660;5.824;2022-08-01T15:15:58;5.70;;;2.35;;
60502;SDS011;51448;51.660;5.824;2022-08-01T15:18:27;7.38;;;2.08;;
60502;SDS011;51448;51.660;5.824;2022-08-01T15:20:55;8.27;;;2.05;;
60502;SDS011;51448;51.660;5.824;2022-08-01T15:23:24;7.00;;;2.17;;
60502;SDS011;51448;51.660;5.824;2022-08-01T15:25:51;7.85;;;2.17;;
60502;SDS011;51448;51.660;5.824;2022-08-01T15:28:19;7.28;;;2.33;;
60502;SDS011;51448;51.660;5.824;2022-08-01T15:30:46;5.50;;;1.77;;
60502;SDS011;51448;51.660;5.824;2022-08-01T15:33:14;6.65;;;1.88;;
60502;SDS011;51448;51.660;5.824;2022-08-01T15:35:43;7.22;;;1.83;;
60502;SDS011;51448;51.660;5.824;2022-08-01T15:38:11;7.38;;;2.00;;
60502;SDS011;51448;51.660;5.824;2022-08-01T15:40:38;6.95;;;1.80;;
60502;SDS011;51448;51.660;5.824;2022-08-01T15:43:06;7.68;;;2.03;;
60502;SDS011;51448;51.660;5.824;2022-08-01T15:45:33;8.50;;;2.10;;
60502;SDS011;51448;51.660;5.824;2022-08-01T15:48:17;5.73;;;1.60;;
60502;SDS011;51448;51.660;5.824;2022-08-01T15:50:45;8.57;;;2.25;;
60502;SDS011;51448;51.660;5.824;2022-08-01T15:53:12;5.88;;;2.05;;
60502;SDS011;51448;51.660;5.824;2022-08-01T15:55:40;8.50;;;2.00;;
60502;SDS011;51448;51.660;5.824;2022-08-01T15:58:18;7.88;;;2.20;;
60502;SDS011;51448;51.660;5.824;2022-08-01T16:00:46;6.82;;;1.70;;
60502;SDS011;51448;51.660;5.824;2022-08-01T16:03:13;6.07;;;1.73;;
60502;SDS011;51448;51.660;5.824;2022-08-01T16:05:42;5.75;;;1.70;;
60502;SDS011;51448;51.660;5.824;2022-08-01T16:08:11;4.82;;;1.70;;
60502;SDS011;51448;51.660;5.824;2022-08-01T16:10:39;7.22;;;1.63;;
60502;SDS011;51448;51.660;5.824;2022-08-01T16:13:08;8.27;;;1.60;;
60502;SDS011;51448;51.660;5.824;2022-08-01T16:15:36;9.48;;;2.40;;